createdAt,value
2023-02-11T00:01:31.703Z,4.24
2023-02-11T00:04:53.255Z,4.26
2023-02-11T00:08:17.053Z,4.23
2023-02-11T00:11:39.152Z,4.26
2023-02-11T00:15:00.575Z,4.25
2023-02-11T00:18:22.165Z,4.17
2023-02-11T00:21:43.853Z,4.20
2023-02-11T00:25:07.643Z,4.23
2023-02-11T00:28:29.061Z,4.24
2023-02-11T00:31:50.987Z,4.27
2023-02-11T00:35:12.623Z,4.25
2023-02-11T00:38:34.405Z,4.28
2023-02-11T00:41:57.777Z,4.29
2023-02-11T00:45:20.878Z,4.29
2023-02-11T00:48:42.678Z,4.31
2023-02-11T00:52:04.797Z,4.34
2023-02-11T00:55:26.386Z,4.36
2023-02-11T00:58:49.564Z,4.34
2023-02-11T01:02:11.989Z,4.31
2023-02-11T01:05:33.636Z,4.38
2023-02-11T01:08:55.202Z,4.39
2023-02-11T01:12:17.006Z,4.39
2023-02-11T01:15:40.271Z,4.36
2023-02-11T01:19:01.955Z,4.34
2023-02-11T01:22:23.173Z,4.39
2023-02-11T01:25:44.954Z,4.40
2023-02-11T01:29:06.220Z,4.43
2023-02-11T01:32:28.920Z,4.42
2023-02-11T01:35:51.538Z,4.47
2023-02-11T01:39:13.227Z,4.52
2023-02-11T01:42:34.694Z,4.52
2023-02-11T01:46:13.667Z,4.49
2023-02-11T01:49:40.851Z,4.52
2023-02-11T01:53:22.931Z,4.49
2023-02-11T01:57:07.380Z,4.48
2023-02-11T02:00:35.703Z,4.42
2023-02-11T02:04:02.679Z,4.43
2023-02-11T02:07:33.735Z,4.43
2023-02-11T02:10:56.599Z,4.48
2023-02-11T02:14:18.282Z,4.46
2023-02-11T02:17:51.023Z,4.49
2023-02-11T02:21:33.190Z,4.46
2023-02-11T02:25:21.319Z,4.51
2023-02-11T02:29:12.171Z,4.55
2023-02-11T02:33:21.595Z,4.60
2023-02-11T02:36:49.132Z,4.56
2023-02-11T02:40:17.119Z,4.58
2023-02-11T02:43:42.663Z,4.60
2023-02-11T02:47:04.873Z,4.59
2023-02-11T02:50:32.417Z,4.63
2023-02-11T02:54:08.259Z,4.63
2023-02-11T02:57:35.567Z,4.64
2023-02-11T03:01:02.655Z,4.60
2023-02-11T03:04:30.556Z,4.61
2023-02-11T03:08:01.340Z,4.64
2023-02-11T03:11:24.452Z,4.66
2023-02-11T03:14:46.720Z,4.66
2023-02-11T03:18:12.836Z,4.65
2023-02-11T03:21:38.836Z,4.67
2023-02-11T03:25:03.218Z,4.68
2023-02-11T03:28:33.963Z,4.68
2023-02-11T03:32:02.094Z,4.69
2023-02-11T03:35:27.259Z,4.71
2023-02-11T03:38:53.419Z,4.68
2023-02-11T03:42:17.712Z,4.67
2023-02-11T03:45:40.704Z,4.70
2023-02-11T03:49:05.623Z,4.70
2023-02-11T03:52:30.459Z,4.72
2023-02-11T03:55:53.857Z,4.69
2023-02-11T03:59:16.958Z,4.69
2023-02-11T04:02:39.232Z,4.67
2023-02-11T04:06:01.072Z,4.64
2023-02-11T04:09:22.957Z,4.64
2023-02-11T04:12:44.817Z,4.64
2023-02-11T04:16:08.489Z,4.66
2023-02-11T04:19:30.118Z,4.70
2023-02-11T04:22:52.006Z,4.70
2023-02-11T04:26:13.612Z,4.71
2023-02-11T04:29:35.485Z,4.73
2023-02-11T04:32:59.169Z,4.74
2023-02-11T04:36:20.659Z,4.75
2023-02-11T04:39:42.142Z,4.75
2023-02-11T04:43:03.638Z,4.78
2023-02-11T04:46:25.669Z,4.81
2023-02-11T04:49:48.851Z,4.84
2023-02-11T04:53:10.515Z,4.83
2023-02-11T04:56:32.410Z,4.85
2023-02-11T04:59:54.006Z,4.86
2023-02-11T05:03:15.741Z,4.83
2023-02-11T05:06:39.384Z,4.84
2023-02-11T05:10:01.308Z,4.87
2023-02-11T05:13:23.292Z,4.85
2023-02-11T05:16:44.938Z,4.87
2023-02-11T05:20:07.835Z,4.84
2023-02-11T05:23:30.895Z,4.85
2023-02-11T05:26:52.141Z,4.86
2023-02-11T05:30:14.608Z,4.90
2023-02-11T05:33:36.349Z,4.91
2023-02-11T05:36:57.661Z,4.93
2023-02-11T05:40:21.030Z,4.92
2023-02-11T05:43:43.049Z,4.94
2023-02-11T05:47:05.143Z,4.91
2023-02-11T05:50:27.169Z,4.87
2023-02-11T05:53:48.644Z,4.91
2023-02-11T05:57:11.898Z,4.95
2023-02-11T06:00:33.875Z,4.98
2023-02-11T06:03:55.306Z,5.03
2023-02-11T06:07:17.500Z,5.06
2023-02-11T06:10:39.468Z,5.09
2023-02-11T06:14:02.426Z,5.13
2023-02-11T06:17:25.349Z,5.13
2023-02-11T06:20:47.082Z,5.12
2023-02-11T06:24:09.076Z,5.13
2023-02-11T06:27:31.528Z,5.18
2023-02-11T06:30:54.529Z,5.20
2023-02-11T06:34:16.324Z,5.21
2023-02-11T06:37:38.338Z,5.25
2023-02-11T06:41:00.259Z,5.27
2023-02-11T06:44:21.833Z,5.29
2023-02-11T06:47:45.093Z,5.32
2023-02-11T06:51:09.504Z,5.29
2023-02-11T06:54:30.968Z,5.33
2023-02-11T06:57:52.855Z,5.39
2023-02-11T07:01:17.052Z,5.36
2023-02-11T07:04:40.097Z,5.42
2023-02-11T07:08:01.285Z,5.41
2023-02-11T07:11:25.300Z,5.41
2023-02-11T07:14:47.219Z,5.42
2023-02-11T07:18:08.918Z,5.45
2023-02-11T07:21:32.137Z,5.46
2023-02-11T07:24:53.463Z,5.45
2023-02-11T07:28:14.775Z,5.50
2023-02-11T07:31:36.516Z,5.53
2023-02-11T07:34:58.635Z,5.56
2023-02-11T07:38:21.775Z,5.60
2023-02-11T07:41:44.456Z,5.65
2023-02-11T07:45:07.315Z,5.69
2023-02-11T07:48:29.035Z,5.71
2023-02-11T07:51:51.361Z,5.74
2023-02-11T07:55:14.621Z,5.75
2023-02-11T07:58:37.432Z,5.75
2023-02-11T08:01:59.107Z,5.76
2023-02-11T08:05:21.115Z,5.83
2023-02-11T08:08:43.681Z,5.79
2023-02-11T08:12:06.941Z,5.75
2023-02-11T08:15:28.505Z,5.80
2023-02-11T08:18:51.710Z,5.84
2023-02-11T08:22:13.295Z,5.86
2023-02-11T08:25:35.100Z,5.88
2023-02-11T08:28:58.834Z,5.93
2023-02-11T08:32:20.666Z,5.95
2023-02-11T08:35:42.119Z,5.98
2023-02-11T08:39:17.941Z,6.00
2023-02-11T08:42:40.869Z,6.02
2023-02-11T08:46:03.915Z,6.04
2023-02-11T08:49:25.513Z,6.06
2023-02-11T08:52:47.500Z,6.02
2023-02-11T08:56:13.436Z,6.05
2023-02-11T08:59:35.860Z,6.08
2023-02-11T09:02:59.083Z,6.13
2023-02-11T09:06:23.467Z,6.12
2023-02-11T09:09:44.867Z,6.14
2023-02-11T09:13:07.449Z,6.17
2023-02-11T09:16:31.835Z,6.18
2023-02-11T09:19:54.795Z,6.21
2023-02-11T09:23:18.540Z,6.26
2023-02-11T09:26:42.676Z,6.21
2023-02-11T09:30:04.719Z,6.21
2023-02-11T09:33:26.175Z,6.21
2023-02-11T09:36:49.513Z,6.28
2023-02-11T09:40:12.134Z,6.28
2023-02-11T09:43:39.371Z,6.34
2023-02-11T09:47:03.260Z,6.35
2023-02-11T09:50:30.232Z,6.41
2023-02-11T09:54:00.916Z,6.38
2023-02-11T09:57:28.824Z,6.44
2023-02-11T10:01:01.973Z,6.44
2023-02-11T10:04:38.792Z,6.46
2023-02-11T10:08:13.622Z,6.45
2023-02-11T10:11:50.416Z,6.45
2023-02-11T10:15:22.806Z,6.45
2023-02-11T10:19:07.310Z,6.49
2023-02-11T10:22:35.900Z,6.50
2023-02-11T10:25:59.005Z,6.52
2023-02-11T10:29:35.144Z,6.53
2023-02-11T10:33:02.282Z,6.54
2023-02-11T10:36:27.536Z,6.59
2023-02-11T10:39:49.489Z,6.61
2023-02-11T10:43:14.582Z,6.62
2023-02-11T10:46:40.221Z,6.62
2023-02-11T10:50:04.422Z,6.59
2023-02-11T10:53:26.248Z,6.59
2023-02-11T10:56:52.194Z,6.66
2023-02-11T11:00:39.880Z,6.69
2023-02-11T11:04:02.980Z,6.68
2023-02-11T11:07:27.325Z,6.68
2023-02-11T11:10:50.655Z,6.66
2023-02-11T11:14:20.779Z,6.61
2023-02-11T11:17:42.671Z,6.63
2023-02-11T11:21:07.711Z,6.67
2023-02-11T11:24:34.403Z,6.68
2023-02-11T11:27:59.487Z,6.71
2023-02-11T11:31:24.185Z,6.72
2023-02-11T11:34:51.391Z,6.76
2023-02-11T11:38:16.212Z,6.75
2023-02-11T11:41:37.811Z,6.70
2023-02-11T11:45:01.864Z,6.74
2023-02-11T11:48:29.251Z,6.76
2023-02-11T11:52:11.252Z,6.81
2023-02-11T11:55:39.110Z,6.86
2023-02-11T11:59:03.656Z,6.89
2023-02-11T12:02:46.201Z,6.88
2023-02-11T12:06:20.789Z,6.89
2023-02-11T12:09:54.010Z,6.89
2023-02-11T12:13:28.457Z,7.00
2023-02-11T12:16:58.253Z,7.04
2023-02-11T12:20:37.860Z,7.06
2023-02-11T12:24:17.608Z,7.04
2023-02-11T12:27:52.091Z,7.09
2023-02-11T12:31:29.447Z,7.13
2023-02-11T12:35:07.772Z,7.15
2023-02-11T12:38:54.144Z,7.19
2023-02-11T12:43:03.155Z,7.21
2023-02-11T12:46:37.409Z,7.21
2023-02-11T12:50:18.482Z,7.21
2023-02-11T12:53:57.401Z,7.29
2023-02-11T12:57:22.553Z,7.30
2023-02-11T13:00:50.870Z,7.33
2023-02-11T13:04:20.566Z,7.39
2023-02-11T13:07:47.404Z,7.32
2023-02-11T13:11:15.103Z,7.40
2023-02-11T13:14:41.129Z,7.36
2023-02-11T13:18:16.808Z,7.41
2023-02-11T13:21:53.279Z,7.41
2023-02-11T13:25:26.590Z,7.49
2023-02-11T13:28:55.603Z,7.53
2023-02-11T13:32:17.128Z,7.51
2023-02-11T13:35:40.679Z,7.56
2023-02-11T13:39:07.064Z,7.61
2023-02-11T13:42:30.195Z,7.64
2023-02-11T13:45:58.481Z,7.61
2023-02-11T13:49:22.382Z,7.64
2023-02-11T13:52:44.119Z,7.65
2023-02-11T13:56:11.318Z,7.68
2023-02-11T13:59:48.028Z,7.70
2023-02-11T14:03:42.013Z,7.66
2023-02-11T14:07:45.805Z,7.70
2023-02-11T14:11:12.690Z,7.73
2023-02-11T14:14:36.158Z,7.69
2023-02-11T14:17:57.987Z,7.65
2023-02-11T14:21:23.121Z,7.67
2023-02-11T14:24:52.385Z,7.65
2023-02-11T14:28:24.878Z,7.64
2023-02-11T14:31:55.429Z,7.65
2023-02-11T14:35:25.848Z,7.66
2023-02-11T14:39:00.429Z,7.66
2023-02-11T14:42:26.874Z,7.58
2023-02-11T14:45:52.819Z,7.58
2023-02-11T14:49:25.134Z,7.51
2023-02-11T14:52:47.279Z,7.56
2023-02-11T14:56:19.470Z,7.62
2023-02-11T14:59:55.969Z,7.59
2023-02-11T15:03:34.550Z,7.59
2023-02-11T15:06:59.390Z,7.63
2023-02-11T15:10:27.990Z,7.64
2023-02-11T15:13:52.137Z,7.70
2023-02-11T15:17:20.258Z,7.75
2023-02-11T15:20:43.646Z,7.74
2023-02-11T15:24:07.479Z,7.76
2023-02-11T15:27:29.294Z,7.76
2023-02-11T15:30:58.368Z,7.74
2023-02-11T15:34:19.963Z,7.76
2023-02-11T15:37:43.337Z,7.75
2023-02-11T15:41:07.505Z,7.78
2023-02-11T15:44:30.694Z,7.77
2023-02-11T15:47:54.470Z,7.80
2023-02-11T15:51:21.858Z,7.81
2023-02-11T15:54:48.380Z,7.83
2023-02-11T15:58:11.416Z,7.82
2023-02-11T16:01:35.185Z,7.82
2023-02-11T16:04:58.709Z,7.81
2023-02-11T16:08:25.711Z,7.83
2023-02-11T16:11:58.880Z,7.83
2023-02-11T16:15:47.804Z,7.83
2023-02-11T16:19:18.856Z,7.84
2023-02-11T16:22:40.627Z,7.88
2023-02-11T16:26:08.498Z,7.85
2023-02-11T16:29:35.236Z,7.87
2023-02-11T16:32:56.835Z,7.86
2023-02-11T16:36:18.738Z,7.84
2023-02-11T16:39:40.516Z,7.88
2023-02-11T16:43:02.337Z,7.90
2023-02-11T16:46:25.138Z,7.91
2023-02-11T16:49:46.641Z,7.92
2023-02-11T16:53:08.841Z,7.94
2023-02-11T16:56:30.783Z,7.93
2023-02-11T16:59:53.387Z,7.93
2023-02-11T17:03:21.991Z,7.92
2023-02-11T17:06:43.661Z,7.88
2023-02-11T17:10:07.604Z,7.91
2023-02-11T17:13:29.638Z,7.90
2023-02-11T17:16:51.618Z,7.86
2023-02-11T17:20:16.341Z,7.84
2023-02-11T17:23:38.659Z,7.80
2023-02-11T17:27:00.074Z,7.78
2023-02-11T17:30:23.242Z,7.74
2023-02-11T17:33:45.823Z,7.74
2023-02-11T17:37:09.250Z,7.74
2023-02-11T17:40:44.797Z,7.70
2023-02-11T17:44:07.936Z,7.72
2023-02-11T17:47:29.796Z,7.72
2023-02-11T17:50:51.727Z,7.66
2023-02-11T17:54:16.858Z,7.66
2023-02-11T17:57:38.344Z,7.65
2023-02-11T18:01:00.067Z,7.64
2023-02-11T18:04:21.545Z,7.62
2023-02-11T18:07:43.388Z,7.60
2023-02-11T18:11:10.408Z,7.61
2023-02-11T18:14:31.732Z,7.65
2023-02-11T18:17:53.441Z,7.63
2023-02-11T18:21:16.702Z,7.68
2023-02-11T18:24:38.264Z,7.72
2023-02-11T18:28:01.246Z,7.74
2023-02-11T18:31:22.753Z,7.74
2023-02-11T18:34:44.698Z,7.72
2023-02-11T18:38:06.600Z,7.74
2023-02-11T18:41:28.602Z,7.77
2023-02-11T18:44:51.961Z,7.81
2023-02-11T18:48:14.234Z,7.81
2023-02-11T18:51:35.768Z,7.80
2023-02-11T18:54:57.536Z,7.85
2023-02-11T18:58:21.101Z,7.87
2023-02-11T19:01:46.888Z,7.85
2023-02-11T19:05:08.961Z,7.87
2023-02-11T19:08:30.820Z,7.88
2023-02-11T19:11:54.532Z,7.90
2023-02-11T19:15:16.424Z,7.89
2023-02-11T19:18:39.697Z,7.88
2023-02-11T19:22:02.888Z,7.88
2023-02-11T19:25:24.364Z,7.88
2023-02-11T19:28:46.149Z,7.87
2023-02-11T19:32:08.178Z,7.87
2023-02-11T19:35:31.082Z,7.84
2023-02-11T19:38:52.912Z,7.85
2023-02-11T19:42:14.823Z,7.84
2023-02-11T19:45:38.167Z,7.84
2023-02-11T19:49:00.534Z,7.84
2023-02-11T19:52:23.875Z,7.83
2023-02-11T19:55:45.277Z,7.84
2023-02-11T19:59:08.995Z,7.84
2023-02-11T20:02:31.210Z,7.81
2023-02-11T20:05:53.359Z,7.81
2023-02-11T20:09:17.839Z,7.78
2023-02-11T20:12:39.204Z,7.78
2023-02-11T20:16:05.617Z,7.78
2023-02-11T20:19:27.959Z,7.82
2023-02-11T20:22:49.553Z,7.78
2023-02-11T20:26:15.130Z,7.80
2023-02-11T20:29:36.705Z,7.78
2023-02-11T20:32:58.488Z,7.75
2023-02-11T20:36:22.303Z,7.77
2023-02-11T20:39:46.106Z,7.78
2023-02-11T20:43:09.412Z,7.81
2023-02-11T20:46:33.890Z,7.83
2023-02-11T20:49:56.065Z,7.82
2023-02-11T20:53:18.526Z,7.83
2023-02-11T20:56:40.449Z,7.82
2023-02-11T21:00:03.453Z,7.79
2023-02-11T21:03:25.158Z,7.77
2023-02-11T21:06:48.821Z,7.76
2023-02-11T21:10:10.806Z,7.81
2023-02-11T21:13:32.175Z,7.79
2023-02-11T21:16:55.463Z,7.82
2023-02-11T21:20:17.867Z,7.84
2023-02-11T21:23:40.246Z,7.84
2023-02-11T21:27:02.942Z,7.84
2023-02-11T21:30:24.851Z,7.82
2023-02-11T21:33:48.579Z,7.82
2023-02-11T21:37:10.674Z,7.79
2023-02-11T21:40:32.257Z,7.79
2023-02-11T21:43:56.732Z,7.77
2023-02-11T21:47:18.731Z,7.76
2023-02-11T21:50:42.929Z,7.74
2023-02-11T21:54:05.100Z,7.74
2023-02-11T21:57:26.907Z,7.75
2023-02-11T22:00:48.710Z,7.74
2023-02-11T22:04:11.004Z,7.75
2023-02-11T22:07:36.295Z,7.75
2023-02-11T22:11:03.559Z,7.74
2023-02-11T22:14:26.424Z,7.72
2023-02-11T22:17:47.951Z,7.71
2023-02-11T22:21:12.177Z,7.71
2023-02-11T22:24:35.874Z,7.70
2023-02-11T22:27:57.588Z,7.71
2023-02-11T22:31:21.489Z,7.71
2023-02-11T22:34:43.482Z,7.71
2023-02-11T22:38:05.509Z,7.70
2023-02-11T22:41:29.229Z,7.70
2023-02-11T22:44:50.722Z,7.68
2023-02-11T22:48:12.333Z,7.68
2023-02-11T22:51:33.961Z,7.64
2023-02-11T22:54:56.232Z,7.65
2023-02-11T22:58:18.845Z,7.65
2023-02-11T23:01:40.863Z,7.62
2023-02-11T23:05:02.740Z,7.59
2023-02-11T23:08:24.703Z,7.60
2023-02-11T23:11:46.942Z,7.59
2023-02-11T23:15:10.747Z,7.58
2023-02-11T23:18:32.643Z,7.58
2023-02-11T23:21:54.257Z,7.58
2023-02-11T23:25:16.535Z,7.55
2023-02-11T23:28:38.632Z,7.55
2023-02-11T23:32:01.745Z,7.56
2023-02-11T23:35:24.428Z,7.59
2023-02-11T23:38:46.131Z,7.59
2023-02-11T23:42:08.116Z,7.60
2023-02-11T23:45:29.890Z,7.61
2023-02-11T23:48:53.089Z,7.61
2023-02-11T23:52:14.979Z,7.63
2023-02-11T23:55:39.934Z,7.64
2023-02-11T23:59:01.555Z,7.64
